CHH7677 ZBAA-ZSHC
Flight info
| Callsign | CHH7677 |
|---|---|
| Flight time | 1h 39m |
| Altitude | 37100 |
| Route | K0837S1130 ELKUR2G ELKUR W40 YQG/K0848S1160 W142 DALIM/K0839S1130 A593 DPX A470 OF W95 SAPIN A470 IGRAT IGR91A |
| Aircraft | A339/H-SADE1E2E3GHIJ3J5M1P2RWXY/LB2D1 |
Departure
| Time | 2026-05-04 08:29 |
|---|---|
| Airport | Beijing Capital International Airport (ZBAA) |
Arrival
| Time | 2026-05-04 10:08 |
|---|---|
| Airport | Hangzhou Xiaoshan International Airport (ZSHC) |
| Time | Latitude | Longitude | Altitude | Speed | Heading |
|---|---|---|---|---|---|
| 2026-05-04 07:58 | 40.07745 | 116.58999 | 131 ft | 0 kts | 263° |
| 2026-05-04 08:14 | 40.07746 | 116.59005 | 130 ft | 2 kts | 263° |
| 2026-05-04 08:14 | 40.07748 | 116.59024 | 131 ft | 2 kts | 263° |
| 2026-05-04 08:16 | 40.07760 | 116.59151 | 131 ft | 0 kts | 258° |
| 2026-05-04 08:16 | 40.07760 | 116.59152 | 131 ft | 0 kts | 258° |
| 2026-05-04 08:17 | 40.07762 | 116.59164 | 131 ft | 1 kts | 258° |
| 2026-05-04 08:19 | 40.07836 | 116.59242 | 131 ft | 2 kts | 179° |
| 2026-05-04 08:19 | 40.07845 | 116.59242 | 131 ft | 1 kts | 173° |
| 2026-05-04 08:20 | 40.07846 | 116.59242 | 131 ft | 0 kts | 172° |
| 2026-05-04 08:24 | 40.07686 | 116.59267 | 131 ft | 8 kts | 174° |
| 2026-05-04 08:24 | 40.07626 | 116.59287 | 131 ft | 9 kts | 145° |
| 2026-05-04 08:24 | 40.07630 | 116.59377 | 131 ft | 15 kts | 27° |
| 2026-05-04 08:24 | 40.07767 | 116.59371 | 131 ft | 21 kts | 353° |
| 2026-05-04 08:25 | 40.07920 | 116.59347 | 131 ft | 20 kts | 353° |
| 2026-05-04 08:25 | 40.08060 | 116.59326 | 131 ft | 20 kts | 353° |
| 2026-05-04 08:25 | 40.08201 | 116.59302 | 131 ft | 20 kts | 353° |
| 2026-05-04 08:25 | 40.08340 | 116.59282 | 131 ft | 20 kts | 353° |
| 2026-05-04 08:26 | 40.08448 | 116.59264 | 131 ft | 15 kts | 353° |
| 2026-05-04 08:27 | 40.08493 | 116.59551 | 131 ft | 0 kts | 173° |
| 2026-05-04 08:28 | 40.08473 | 116.59554 | 131 ft | 11 kts | 173° |
| 2026-05-04 08:28 | 40.08169 | 116.59602 | 131 ft | 77 kts | 173° |
| 2026-05-04 08:28 | 40.07422 | 116.59719 | 131 ft | 134 kts | 175° |
| 2026-05-04 08:28 | 40.06358 | 116.59905 | 194 ft | 173 kts | 175° |
| 2026-05-04 08:29 | 40.05100 | 116.60123 | 599 ft | 185 kts | 175° |
| 2026-05-04 08:29 | 40.03821 | 116.60321 | 1263 ft | 188 kts | 175° |
| 2026-05-04 08:29 | 40.02535 | 116.60494 | 1939 ft | 188 kts | 176° |
| 2026-05-04 08:31 | 39.91428 | 116.62223 | 5198 ft | 266 kts | 175° |
| 2026-05-04 08:33 | 39.77634 | 116.64352 | 9823 ft | 309 kts | 176° |
| 2026-05-04 08:33 | 39.75504 | 116.64674 | 10448 ft | 316 kts | 176° |
| 2026-05-04 08:35 | 39.59164 | 116.67873 | 15231 ft | 352 kts | 169° |
| 2026-05-04 08:35 | 39.56758 | 116.68507 | 15948 ft | 356 kts | 168° |
| 2026-05-04 08:35 | 39.54407 | 116.69376 | 16666 ft | 359 kts | 160° |
| 2026-05-04 08:35 | 39.52111 | 116.70679 | 17427 ft | 360 kts | 152° |
| 2026-05-04 08:37 | 39.38885 | 116.80172 | 18605 ft | 366 kts | 150° |
| 2026-05-04 08:37 | 39.36630 | 116.81776 | 19184 ft | 371 kts | 150° |
| 2026-05-04 08:37 | 39.34382 | 116.83311 | 19958 ft | 371 kts | 153° |
| 2026-05-04 08:38 | 39.31998 | 116.84690 | 20632 ft | 374 kts | 158° |
| 2026-05-04 08:38 | 39.29574 | 116.85926 | 21253 ft | 378 kts | 158° |
| 2026-05-04 08:38 | 39.27128 | 116.87155 | 21848 ft | 382 kts | 158° |
| 2026-05-04 08:40 | 39.08977 | 116.92326 | 25592 ft | 404 kts | 205° |
| 2026-05-04 08:40 | 39.06416 | 116.90826 | 26073 ft | 407 kts | 206° |
| 2026-05-04 08:40 | 39.03854 | 116.89301 | 26541 ft | 410 kts | 206° |
| 2026-05-04 08:41 | 39.01242 | 116.87763 | 27006 ft | 414 kts | 206° |
| 2026-05-04 08:41 | 38.98607 | 116.86230 | 27453 ft | 417 kts | 206° |
| 2026-05-04 08:41 | 38.95969 | 116.84708 | 27886 ft | 419 kts | 206° |
| 2026-05-04 08:41 | 38.93301 | 116.83176 | 28310 ft | 422 kts | 206° |
| 2026-05-04 08:42 | 38.90601 | 116.81632 | 28719 ft | 426 kts | 206° |
| 2026-05-04 08:42 | 38.87912 | 116.80096 | 29102 ft | 429 kts | 207° |
| 2026-05-04 08:42 | 38.85179 | 116.78537 | 29493 ft | 431 kts | 207° |
| 2026-05-04 08:42 | 38.82402 | 116.76955 | 29870 ft | 434 kts | 207° |
| 2026-05-04 08:43 | 38.79643 | 116.75390 | 30232 ft | 437 kts | 207° |
| 2026-05-04 08:43 | 38.76886 | 116.73827 | 30573 ft | 440 kts | 207° |
| 2026-05-04 08:43 | 38.74052 | 116.72223 | 30913 ft | 442 kts | 207° |
| 2026-05-04 08:43 | 38.71251 | 116.70644 | 31238 ft | 445 kts | 206° |
| 2026-05-04 08:44 | 38.68356 | 116.69191 | 31554 ft | 449 kts | 202° |
| 2026-05-04 08:44 | 38.65361 | 116.67941 | 31882 ft | 453 kts | 199° |
| 2026-05-04 08:46 | 38.43045 | 116.64112 | 33939 ft | 472 kts | 188° |
| 2026-05-04 08:46 | 38.39766 | 116.63735 | 34205 ft | 474 kts | 188° |
| 2026-05-04 08:46 | 38.36490 | 116.63425 | 34477 ft | 476 kts | 185° |
| 2026-05-04 08:46 | 38.33161 | 116.63362 | 34827 ft | 476 kts | 181° |
| 2026-05-04 08:47 | 38.29894 | 116.63567 | 35174 ft | 475 kts | 178° |
| 2026-05-04 08:47 | 38.26613 | 116.64039 | 35485 ft | 476 kts | 174° |
| 2026-05-04 08:47 | 38.23363 | 116.64783 | 35720 ft | 478 kts | 170° |
| 2026-05-04 08:47 | 38.20099 | 116.65813 | 35962 ft | 480 kts | 166° |
| 2026-05-04 08:48 | 38.16935 | 116.66996 | 36206 ft | 481 kts | 166° |
| 2026-05-04 08:48 | 38.13691 | 116.68224 | 36510 ft | 482 kts | 166° |
| 2026-05-04 08:48 | 38.10511 | 116.69418 | 36800 ft | 483 kts | 166° |
| 2026-05-04 08:48 | 38.07294 | 116.70641 | 36974 ft | 485 kts | 166° |
| 2026-05-04 08:49 | 38.04078 | 116.71873 | 36974 ft | 486 kts | 166° |
| 2026-05-04 08:50 | 37.81436 | 116.80489 | 36987 ft | 485 kts | 166° |
| 2026-05-04 08:51 | 37.74965 | 116.82937 | 36995 ft | 485 kts | 166° |
| 2026-05-04 08:51 | 37.68500 | 116.85378 | 36981 ft | 485 kts | 166° |
| 2026-05-04 08:52 | 37.62049 | 116.87810 | 36997 ft | 484 kts | 166° |
| 2026-05-04 08:52 | 37.55628 | 116.90226 | 36993 ft | 484 kts | 166° |
| 2026-05-04 08:54 | 37.29842 | 116.99915 | 36991 ft | 485 kts | 164° |
| 2026-05-04 08:55 | 37.23523 | 117.02818 | 36998 ft | 485 kts | 162° |
| 2026-05-04 08:55 | 37.17216 | 117.05786 | 36999 ft | 485 kts | 162° |
| 2026-05-04 09:01 | 36.49342 | 117.21383 | 37072 ft | 473 kts | 183° |
| 2026-05-04 09:01 | 36.42735 | 117.21946 | 37063 ft | 476 kts | 176° |
| 2026-05-04 09:02 | 36.36226 | 117.23444 | 37064 ft | 479 kts | 169° |
| 2026-05-04 09:02 | 36.29831 | 117.25738 | 37059 ft | 481 kts | 167° |
| 2026-05-04 09:03 | 36.24476 | 117.27744 | 37055 ft | 480 kts | 167° |
| 2026-05-04 09:03 | 36.17033 | 117.30514 | 37058 ft | 478 kts | 167° |
| 2026-05-04 09:04 | 36.10691 | 117.32860 | 37069 ft | 478 kts | 167° |
| 2026-05-04 09:04 | 36.04341 | 117.35204 | 37072 ft | 478 kts | 167° |
| 2026-05-04 09:05 | 35.97955 | 117.37566 | 37075 ft | 477 kts | 167° |
| 2026-05-04 09:05 | 35.91598 | 117.39951 | 37080 ft | 477 kts | 167° |
| 2026-05-04 09:06 | 35.85249 | 117.42333 | 37077 ft | 477 kts | 167° |
| 2026-05-04 09:08 | 35.59855 | 117.51794 | 37087 ft | 479 kts | 167° |
| 2026-05-04 09:08 | 35.53466 | 117.54165 | 37096 ft | 478 kts | 167° |
| 2026-05-04 09:09 | 35.47100 | 117.56522 | 37096 ft | 478 kts | 167° |
| 2026-05-04 09:09 | 35.40751 | 117.58868 | 37093 ft | 478 kts | 167° |
| 2026-05-04 09:10 | 35.34415 | 117.61205 | 37095 ft | 478 kts | 167° |
| 2026-05-04 09:10 | 35.28019 | 117.63563 | 37101 ft | 478 kts | 167° |
| 2026-05-04 09:11 | 35.21685 | 117.65891 | 37096 ft | 478 kts | 168° |
| 2026-05-04 09:11 | 35.15310 | 117.68231 | 37098 ft | 478 kts | 168° |
| 2026-05-04 09:12 | 35.08968 | 117.70556 | 37097 ft | 477 kts | 168° |
| 2026-05-04 09:14 | 34.83535 | 117.79860 | 37084 ft | 477 kts | 168° |
| 2026-05-04 09:14 | 34.77177 | 117.82177 | 37080 ft | 477 kts | 168° |
| 2026-05-04 09:15 | 34.70826 | 117.84466 | 37076 ft | 478 kts | 168° |
| 2026-05-04 09:15 | 34.64453 | 117.86755 | 37078 ft | 477 kts | 168° |
| 2026-05-04 09:17 | 34.35802 | 117.97005 | 37073 ft | 477 kts | 169° |
| 2026-05-04 09:18 | 34.29450 | 117.99265 | 37067 ft | 477 kts | 169° |
| 2026-05-04 09:18 | 34.23082 | 118.01563 | 37056 ft | 478 kts | 168° |
| 2026-05-04 09:19 | 34.16747 | 118.03879 | 37065 ft | 478 kts | 169° |
| 2026-05-04 09:19 | 34.10377 | 118.06200 | 37068 ft | 477 kts | 169° |
| 2026-05-04 09:20 | 34.04048 | 118.08495 | 37077 ft | 477 kts | 169° |
| 2026-05-04 09:20 | 33.97661 | 118.10815 | 37199 ft | 478 kts | 169° |
| 2026-05-04 09:21 | 33.91312 | 118.13129 | 37099 ft | 476 kts | 169° |
| 2026-05-04 09:21 | 33.84999 | 118.15425 | 37075 ft | 476 kts | 169° |
| 2026-05-04 09:22 | 33.81839 | 118.16573 | 36974 ft | 475 kts | 169° |
| 2026-05-04 09:22 | 33.78652 | 118.17732 | 37032 ft | 476 kts | 169° |
| 2026-05-04 09:22 | 33.72325 | 118.20040 | 37077 ft | 476 kts | 169° |
| 2026-05-04 09:23 | 33.65995 | 118.22347 | 37080 ft | 476 kts | 169° |
| 2026-05-04 09:23 | 33.59650 | 118.24652 | 37076 ft | 476 kts | 170° |
| 2026-05-04 09:25 | 33.34365 | 118.33798 | 37080 ft | 474 kts | 170° |
| 2026-05-04 09:26 | 33.28071 | 118.36064 | 37076 ft | 475 kts | 170° |
| 2026-05-04 09:26 | 33.24892 | 118.37206 | 36855 ft | 475 kts | 170° |
| 2026-05-04 09:26 | 33.21714 | 118.38348 | 36598 ft | 475 kts | 170° |
| 2026-05-04 09:27 | 33.18574 | 118.39482 | 36349 ft | 475 kts | 170° |
| 2026-05-04 09:27 | 33.15407 | 118.40623 | 36095 ft | 474 kts | 170° |
| 2026-05-04 09:27 | 33.12257 | 118.41761 | 35847 ft | 474 kts | 170° |
| 2026-05-04 09:27 | 33.09070 | 118.42905 | 35604 ft | 475 kts | 170° |
| 2026-05-04 09:28 | 33.05940 | 118.44031 | 35366 ft | 475 kts | 170° |
| 2026-05-04 09:28 | 33.02760 | 118.45174 | 35172 ft | 472 kts | 170° |
| 2026-05-04 09:28 | 32.99659 | 118.46290 | 34977 ft | 469 kts | 170° |
| 2026-05-04 09:28 | 32.96514 | 118.47421 | 34783 ft | 467 kts | 170° |
| 2026-05-04 09:29 | 32.93445 | 118.48521 | 34590 ft | 465 kts | 170° |
| 2026-05-04 09:29 | 32.90342 | 118.49630 | 34392 ft | 464 kts | 170° |
| 2026-05-04 09:29 | 32.87263 | 118.50730 | 34194 ft | 463 kts | 170° |
| 2026-05-04 09:29 | 32.84164 | 118.51838 | 33976 ft | 461 kts | 170° |
| 2026-05-04 09:30 | 32.81123 | 118.52924 | 33757 ft | 459 kts | 170° |
| 2026-05-04 09:30 | 32.78053 | 118.54021 | 33531 ft | 455 kts | 169° |
| 2026-05-04 09:30 | 32.75052 | 118.55092 | 33288 ft | 454 kts | 170° |
| 2026-05-04 09:30 | 32.72004 | 118.56178 | 33045 ft | 453 kts | 170° |
| 2026-05-04 09:31 | 32.69006 | 118.57246 | 32809 ft | 450 kts | 170° |
| 2026-05-04 09:31 | 32.66034 | 118.58296 | 32568 ft | 448 kts | 170° |
| 2026-05-04 09:31 | 32.63021 | 118.59332 | 32319 ft | 445 kts | 171° |
| 2026-05-04 09:31 | 32.60075 | 118.60330 | 32084 ft | 443 kts | 171° |
| 2026-05-04 09:32 | 32.57086 | 118.61340 | 31838 ft | 443 kts | 171° |
| 2026-05-04 09:32 | 32.54126 | 118.62341 | 31602 ft | 441 kts | 171° |
| 2026-05-04 09:34 | 32.33800 | 118.69218 | 29887 ft | 428 kts | 171° |
| 2026-05-04 09:34 | 32.30950 | 118.70180 | 29657 ft | 427 kts | 171° |
| 2026-05-04 09:34 | 32.28088 | 118.71145 | 29384 ft | 425 kts | 171° |
| 2026-05-04 09:34 | 32.25268 | 118.72096 | 29115 ft | 423 kts | 171° |
| 2026-05-04 09:35 | 32.22453 | 118.73042 | 28863 ft | 421 kts | 171° |
| 2026-05-04 09:35 | 32.19627 | 118.73988 | 28615 ft | 420 kts | 171° |
| 2026-05-04 09:35 | 32.16813 | 118.74930 | 28348 ft | 417 kts | 171° |
| 2026-05-04 09:35 | 32.14042 | 118.75857 | 28097 ft | 415 kts | 172° |
| 2026-05-04 09:37 | 31.94780 | 118.82239 | 26337 ft | 404 kts | 172° |
| 2026-05-04 09:37 | 31.92092 | 118.83092 | 26092 ft | 403 kts | 172° |
| 2026-05-04 09:38 | 31.89363 | 118.83958 | 25842 ft | 402 kts | 172° |
| 2026-05-04 09:38 | 31.86696 | 118.84805 | 25596 ft | 401 kts | 171° |
| 2026-05-04 09:38 | 31.83973 | 118.85677 | 25344 ft | 400 kts | 171° |
| 2026-05-04 09:38 | 31.81319 | 118.86593 | 25103 ft | 400 kts | 169° |
| 2026-05-04 09:39 | 31.78653 | 118.87558 | 24852 ft | 401 kts | 167° |
| 2026-05-04 09:39 | 31.76080 | 118.88873 | 24595 ft | 406 kts | 157° |
| 2026-05-04 09:39 | 31.73713 | 118.90651 | 24337 ft | 411 kts | 147° |
| 2026-05-04 09:39 | 31.71537 | 118.92847 | 24087 ft | 412 kts | 141° |
| 2026-05-04 09:40 | 31.69436 | 118.95132 | 23830 ft | 409 kts | 143° |
| 2026-05-04 09:40 | 31.67240 | 118.97279 | 23570 ft | 406 kts | 147° |
| 2026-05-04 09:40 | 31.65009 | 118.99246 | 23327 ft | 405 kts | 147° |
| 2026-05-04 09:40 | 31.62754 | 119.01238 | 23070 ft | 403 kts | 147° |
| 2026-05-04 09:41 | 31.60495 | 119.03204 | 22808 ft | 401 kts | 147° |
| 2026-05-04 09:42 | 31.45062 | 119.16719 | 21061 ft | 391 kts | 147° |
| 2026-05-04 09:43 | 31.42916 | 119.18594 | 20810 ft | 389 kts | 147° |
| 2026-05-04 09:43 | 31.40748 | 119.20486 | 20488 ft | 387 kts | 147° |
| 2026-05-04 09:43 | 31.38578 | 119.22380 | 20101 ft | 385 kts | 147° |
| 2026-05-04 09:43 | 31.36439 | 119.24243 | 19733 ft | 383 kts | 146° |
| 2026-05-04 09:44 | 31.34312 | 119.26096 | 19383 ft | 380 kts | 146° |
| 2026-05-04 09:44 | 31.32214 | 119.27924 | 19031 ft | 378 kts | 146° |
| 2026-05-04 09:44 | 31.30106 | 119.29760 | 18679 ft | 376 kts | 146° |
| 2026-05-04 09:46 | 31.15725 | 119.42274 | 16494 ft | 363 kts | 144° |
| 2026-05-04 09:46 | 31.13713 | 119.44036 | 16249 ft | 362 kts | 144° |
| 2026-05-04 09:46 | 31.11713 | 119.45785 | 15994 ft | 361 kts | 144° |
| 2026-05-04 09:47 | 31.09711 | 119.47535 | 15749 ft | 359 kts | 144° |
| 2026-05-04 09:47 | 31.07709 | 119.49283 | 15495 ft | 358 kts | 144° |
| 2026-05-04 09:49 | 30.93977 | 119.61242 | 13788 ft | 347 kts | 143° |
| 2026-05-04 09:49 | 30.92047 | 119.62921 | 13543 ft | 345 kts | 143° |
| 2026-05-04 09:49 | 30.90127 | 119.64588 | 13300 ft | 344 kts | 143° |
| 2026-05-04 09:51 | 30.78752 | 119.74451 | 11839 ft | 336 kts | 143° |
| 2026-05-04 09:51 | 30.76860 | 119.76090 | 11598 ft | 336 kts | 143° |
| 2026-05-04 09:51 | 30.75001 | 119.77698 | 11372 ft | 335 kts | 143° |
| 2026-05-04 09:51 | 30.73131 | 119.79315 | 11108 ft | 332 kts | 143° |
| 2026-05-04 09:52 | 30.71292 | 119.80907 | 10863 ft | 331 kts | 142° |
| 2026-05-04 09:52 | 30.69473 | 119.82549 | 10644 ft | 328 kts | 141° |
| 2026-05-04 09:52 | 30.67690 | 119.84186 | 10427 ft | 323 kts | 141° |
| 2026-05-04 09:52 | 30.65951 | 119.85781 | 10206 ft | 319 kts | 141° |
| 2026-05-04 09:53 | 30.64175 | 119.87291 | 10001 ft | 315 kts | 145° |
| 2026-05-04 09:53 | 30.62305 | 119.88624 | 9828 ft | 310 kts | 150° |
| 2026-05-04 09:53 | 30.60448 | 119.89812 | 9699 ft | 305 kts | 150° |
| 2026-05-04 09:53 | 30.58566 | 119.91000 | 9568 ft | 306 kts | 151° |
| 2026-05-04 09:54 | 30.56680 | 119.92191 | 9488 ft | 306 kts | 150° |
| 2026-05-04 09:54 | 30.54817 | 119.93368 | 9420 ft | 305 kts | 150° |
| 2026-05-04 09:54 | 30.52967 | 119.94540 | 9291 ft | 303 kts | 150° |
| 2026-05-04 09:54 | 30.51103 | 119.95720 | 9151 ft | 303 kts | 150° |
| 2026-05-04 09:55 | 30.49264 | 119.96884 | 9010 ft | 302 kts | 150° |
| 2026-05-04 09:55 | 30.47423 | 119.98051 | 8821 ft | 301 kts | 151° |
| 2026-05-04 09:55 | 30.45582 | 119.99217 | 8577 ft | 300 kts | 151° |
| 2026-05-04 09:55 | 30.43741 | 120.00382 | 8083 ft | 308 kts | 151° |
| 2026-05-04 09:56 | 30.41851 | 120.01579 | 7861 ft | 303 kts | 151° |
| 2026-05-04 09:56 | 30.40024 | 120.02736 | 7828 ft | 293 kts | 151° |
| 2026-05-04 09:56 | 30.38289 | 120.03834 | 7836 ft | 281 kts | 151° |
| 2026-05-04 09:56 | 30.36573 | 120.04919 | 7838 ft | 281 kts | 151° |
| 2026-05-04 09:57 | 30.34846 | 120.06012 | 7840 ft | 281 kts | 151° |
| 2026-05-04 09:57 | 30.33140 | 120.07090 | 7840 ft | 282 kts | 151° |
| 2026-05-04 09:57 | 30.31409 | 120.08184 | 7837 ft | 281 kts | 151° |
| 2026-05-04 09:57 | 30.29681 | 120.09276 | 7712 ft | 280 kts | 151° |
| 2026-05-04 09:58 | 30.28005 | 120.10334 | 7544 ft | 276 kts | 151° |
| 2026-05-04 09:58 | 30.26308 | 120.11405 | 7375 ft | 272 kts | 151° |
| 2026-05-04 09:58 | 30.24672 | 120.12438 | 7215 ft | 268 kts | 151° |
| 2026-05-04 10:00 | 30.16472 | 120.06944 | 5936 ft | 231 kts | 214° |
| 2026-05-04 10:00 | 30.14964 | 120.06408 | 5854 ft | 227 kts | 177° |
| 2026-05-04 10:02 | 30.09960 | 120.14413 | 4382 ft | 205 kts | 62° |
| 2026-05-04 10:04 | 30.14360 | 120.23959 | 3192 ft | 172 kts | 64° |
| 2026-05-04 10:04 | 30.14892 | 120.25178 | 3066 ft | 173 kts | 64° |
| 2026-05-04 10:04 | 30.15455 | 120.26467 | 2850 ft | 186 kts | 64° |
| 2026-05-04 10:04 | 30.16049 | 120.27824 | 2598 ft | 189 kts | 64° |
| 2026-05-04 10:05 | 30.16643 | 120.29174 | 2343 ft | 191 kts | 64° |
| 2026-05-04 10:05 | 30.17243 | 120.30536 | 2090 ft | 186 kts | 64° |
| 2026-05-04 10:05 | 30.17813 | 120.31825 | 1840 ft | 178 kts | 65° |
| 2026-05-04 10:05 | 30.18364 | 120.33073 | 1611 ft | 172 kts | 64° |
| 2026-05-04 10:06 | 30.18901 | 120.34288 | 1394 ft | 164 kts | 64° |
| 2026-05-04 10:06 | 30.19407 | 120.35433 | 1196 ft | 156 kts | 64° |
| 2026-05-04 10:06 | 30.19892 | 120.36531 | 1010 ft | 148 kts | 64° |
| 2026-05-04 10:08 | 30.22602 | 120.42654 | 43 ft | 121 kts | 63° |
| 2026-05-04 10:08 | 30.22902 | 120.43329 | 43 ft | 68 kts | 63° |
| 2026-05-04 10:08 | 30.23077 | 120.43725 | 46 ft | 49 kts | 63° |
| 2026-05-04 10:08 | 30.23208 | 120.43983 | 43 ft | 28 kts | 46° |
| 2026-05-04 10:09 | 30.23318 | 120.44089 | 43 ft | 12 kts | 34° |
| 2026-05-04 10:09 | 30.23381 | 120.44134 | 43 ft | 6 kts | 13° |
| 2026-05-04 10:09 | 30.23412 | 120.44099 | 43 ft | 11 kts | 287° |
| 2026-05-04 10:09 | 30.23379 | 120.43977 | 43 ft | 18 kts | 243° |
| 2026-05-04 10:10 | 30.23324 | 120.43853 | 46 ft | 15 kts | 242° |
| 2026-05-04 10:10 | 30.23276 | 120.43742 | 46 ft | 14 kts | 243° |
| 2026-05-04 10:10 | 30.23228 | 120.43635 | 47 ft | 15 kts | 242° |
| 2026-05-04 10:10 | 30.23193 | 120.43550 | 47 ft | 8 kts | 257° |
| 2026-05-04 10:11 | 30.23211 | 120.43491 | 47 ft | 7 kts | 324° |
| 2026-05-04 10:11 | 30.23259 | 120.43506 | 48 ft | 8 kts | 45° |
| 2026-05-04 10:11 | 30.23295 | 120.43580 | 48 ft | 13 kts | 62° |
| 2026-05-04 10:11 | 30.23344 | 120.43692 | 46 ft | 17 kts | 63° |
| 2026-05-04 10:12 | 30.23394 | 120.43805 | 46 ft | 13 kts | 63° |
| 2026-05-04 10:12 | 30.23440 | 120.43909 | 45 ft | 14 kts | 63° |
| 2026-05-04 10:12 | 30.23495 | 120.43950 | 44 ft | 8 kts | 344° |
| 2026-05-04 10:12 | 30.23562 | 120.43915 | 45 ft | 13 kts | 333° |
| 2026-05-04 10:13 | 30.23655 | 120.43860 | 46 ft | 16 kts | 333° |
| 2026-05-04 10:13 | 30.23768 | 120.43794 | 46 ft | 19 kts | 332° |
| 2026-05-04 10:13 | 30.23892 | 120.43720 | 46 ft | 19 kts | 332° |
| 2026-05-04 10:13 | 30.24016 | 120.43645 | 46 ft | 20 kts | 332° |
| 2026-05-04 10:14 | 30.24146 | 120.43572 | 43 ft | 21 kts | 330° |
| 2026-05-04 10:14 | 30.24260 | 120.43504 | 43 ft | 14 kts | 332° |
| 2026-05-04 10:16 | 30.24373 | 120.42943 | 46 ft | 13 kts | 243° |
| 2026-05-04 10:16 | 30.24324 | 120.42854 | 46 ft | 12 kts | 212° |
| 2026-05-04 10:16 | 30.24238 | 120.42867 | 46 ft | 14 kts | 153° |
| 2026-05-04 10:16 | 30.24150 | 120.42919 | 46 ft | 11 kts | 152° |
| 2026-05-04 10:17 | 30.24082 | 120.42959 | 46 ft | 10 kts | 153° |
| 2026-05-04 10:17 | 30.24056 | 120.42988 | 46 ft | 4 kts | 100° |
| 2026-05-04 10:19 | 30.24061 | 120.43033 | 46 ft | 0 kts | 64° |